createdAt,value
2023-03-13T00:01:27.850Z,7.93
2023-03-13T00:03:55.393Z,8.00
2023-03-13T00:06:28.724Z,7.91
2023-03-13T00:08:55.780Z,7.92
2023-03-13T00:11:22.218Z,8.01
2023-03-13T00:13:48.614Z,8.00
2023-03-13T00:16:16.597Z,8.07
2023-03-13T00:18:48.047Z,8.13
2023-03-13T00:21:18.161Z,8.05
2023-03-13T00:23:45.564Z,7.94
2023-03-13T00:26:15.083Z,7.98
2023-03-13T00:28:42.536Z,7.89
2023-03-13T00:31:19.987Z,8.03
2023-03-13T00:33:53.049Z,8.06
2023-03-13T00:36:21.792Z,7.95
2023-03-13T00:38:48.516Z,8.09
2023-03-13T00:41:18.139Z,8.25
2023-03-13T00:43:46.014Z,8.23
2023-03-13T00:46:13.887Z,8.34
2023-03-13T00:48:40.838Z,8.36
2023-03-13T00:51:09.540Z,8.42
2023-03-13T00:53:36.537Z,8.34
2023-03-13T00:56:06.092Z,8.38
2023-03-13T00:58:36.154Z,8.39
2023-03-13T01:01:16.803Z,8.32
2023-03-13T01:03:46.848Z,8.19
2023-03-13T01:06:16.402Z,8.16
2023-03-13T01:08:43.049Z,8.08
2023-03-13T01:11:15.718Z,8.03
2023-03-13T01:13:42.858Z,8.07
2023-03-13T01:16:13.789Z,7.96
2023-03-13T01:18:44.593Z,8.13
2023-03-13T01:21:12.060Z,8.05
2023-03-13T01:23:38.635Z,8.06
2023-03-13T01:26:07.124Z,8.04
2023-03-13T01:28:34.747Z,8.05
2023-03-13T01:31:03.205Z,7.95
2023-03-13T01:33:29.992Z,8.03
2023-03-13T01:36:04.563Z,7.94
2023-03-13T01:38:31.359Z,7.82
2023-03-13T01:40:57.979Z,7.74
2023-03-13T01:43:27.878Z,7.76
2023-03-13T01:46:17.821Z,7.73
2023-03-13T01:49:27.181Z,7.75
2023-03-13T01:52:10.558Z,7.72
2023-03-13T01:55:12.490Z,7.83
2023-03-13T01:57:44.659Z,7.78
2023-03-13T02:00:16.555Z,7.76
2023-03-13T02:02:50.374Z,7.64
2023-03-13T02:05:20.942Z,7.68
2023-03-13T02:08:33.882Z,7.62
2023-03-13T02:11:15.997Z,7.66
2023-03-13T02:13:43.525Z,7.64
2023-03-13T02:16:10.869Z,7.66
2023-03-13T02:18:38.297Z,7.61
2023-03-13T02:21:16.554Z,7.64
2023-03-13T02:23:55.600Z,7.75
2023-03-13T02:26:22.099Z,7.65
2023-03-13T02:28:48.650Z,7.72
2023-03-13T02:31:17.233Z,7.74
2023-03-13T02:33:44.704Z,7.72
2023-03-13T02:36:16.512Z,7.76
2023-03-13T02:38:51.507Z,7.70
2023-03-13T02:41:19.795Z,7.72
2023-03-13T02:43:46.247Z,7.72
2023-03-13T02:46:18.928Z,7.65
2023-03-13T02:48:51.436Z,7.71
2023-03-13T02:51:22.479Z,7.66
2023-03-13T02:53:51.092Z,7.65
2023-03-13T02:56:21.559Z,7.51
2023-03-13T02:58:50.366Z,7.58
2023-03-13T03:01:20.634Z,7.52
2023-03-13T03:03:47.299Z,7.42
2023-03-13T03:06:13.826Z,7.50
2023-03-13T03:08:41.523Z,7.50
2023-03-13T03:11:10.526Z,7.54
2023-03-13T03:13:37.111Z,7.46
2023-03-13T03:16:09.636Z,7.45
2023-03-13T03:18:38.002Z,7.54
2023-03-13T03:21:06.340Z,7.53
2023-03-13T03:23:37.056Z,7.48
2023-03-13T03:26:05.618Z,7.42
2023-03-13T03:28:32.982Z,7.44
2023-03-13T03:31:07.922Z,7.39
2023-03-13T03:33:36.494Z,7.34
2023-03-13T03:36:08.978Z,7.44
2023-03-13T03:38:36.476Z,7.46
2023-03-13T03:41:03.380Z,7.53
2023-03-13T03:43:31.285Z,7.57
2023-03-13T03:45:58.542Z,7.45
2023-03-13T03:48:25.869Z,7.42
2023-03-13T03:50:52.523Z,7.58
2023-03-13T03:53:19.869Z,7.56
2023-03-13T03:55:46.371Z,7.59
2023-03-13T03:58:13.152Z,7.53
2023-03-13T04:01:02.272Z,7.60
2023-03-13T04:03:30.509Z,7.65
2023-03-13T04:05:57.346Z,7.55
2023-03-13T04:08:24.587Z,7.61
2023-03-13T04:10:51.810Z,7.54
2023-03-13T04:13:21.820Z,7.49
2023-03-13T04:15:48.945Z,7.45
2023-03-13T04:18:16.996Z,7.44
2023-03-13T04:20:44.345Z,7.45
2023-03-13T04:23:11.414Z,7.48
2023-03-13T04:25:38.204Z,7.42
2023-03-13T04:28:08.932Z,7.37
2023-03-13T04:30:40.764Z,7.36
2023-03-13T04:33:26.132Z,7.33
2023-03-13T04:36:04.963Z,7.36
2023-03-13T04:38:57.970Z,7.28
2023-03-13T04:41:55.115Z,7.39
2023-03-13T04:44:35.724Z,7.38
2023-03-13T04:47:22.462Z,7.31
2023-03-13T04:50:15.417Z,7.35
2023-03-13T04:52:50.407Z,7.23
2023-03-13T04:55:30.216Z,7.35
2023-03-13T04:58:05.511Z,7.37
2023-03-13T05:00:53.790Z,7.31
2023-03-13T05:03:49.552Z,7.29
2023-03-13T05:06:25.658Z,7.23
2023-03-13T05:09:04.778Z,7.31
2023-03-13T05:11:50.698Z,7.30
2023-03-13T05:14:37.430Z,7.34
2023-03-13T05:17:22.581Z,7.30
2023-03-13T05:20:11.162Z,7.36
2023-03-13T05:22:47.505Z,7.37
2023-03-13T05:25:30.947Z,7.41
2023-03-13T05:28:09.876Z,7.49
2023-03-13T05:30:48.280Z,7.52
2023-03-13T05:33:31.864Z,7.44
2023-03-13T05:36:26.331Z,7.41
2023-03-13T05:38:55.624Z,7.37
2023-03-13T05:41:34.124Z,7.44
2023-03-13T05:44:15.991Z,7.41
2023-03-13T05:47:02.360Z,7.52
2023-03-13T05:49:42.003Z,7.44
2023-03-13T05:52:18.978Z,7.41
2023-03-13T05:55:09.065Z,7.55
2023-03-13T05:57:55.633Z,7.48
2023-03-13T06:00:32.908Z,7.60
2023-03-13T06:03:25.363Z,7.66
2023-03-13T06:05:59.134Z,7.60
2023-03-13T06:08:47.416Z,7.52
2023-03-13T06:11:14.552Z,7.50
2023-03-13T06:13:41.268Z,7.50
2023-03-13T06:16:30.680Z,7.57
2023-03-13T06:19:11.935Z,7.59
2023-03-13T06:21:39.013Z,7.53
2023-03-13T06:24:05.888Z,7.53
2023-03-13T06:26:32.442Z,7.62
2023-03-13T06:28:59.171Z,7.61
2023-03-13T06:31:25.864Z,7.59
2023-03-13T06:33:55.949Z,7.56
2023-03-13T06:36:24.250Z,7.72
2023-03-13T06:38:51.511Z,8.18
2023-03-13T06:41:18.352Z,8.43
2023-03-13T06:43:44.785Z,8.67
2023-03-13T06:46:17.616Z,8.74
2023-03-13T06:48:44.535Z,8.96
2023-03-13T06:51:13.007Z,9.23
2023-03-13T06:53:39.492Z,9.16
2023-03-13T06:56:06.677Z,9.26
2023-03-13T06:58:33.421Z,9.32
2023-03-13T07:01:06.507Z,9.46
2023-03-13T07:03:33.432Z,9.60
2023-03-13T07:06:00.609Z,9.75
2023-03-13T07:08:27.617Z,9.79
2023-03-13T07:10:58.095Z,9.92
2023-03-13T07:13:24.607Z,10.08
2023-03-13T07:15:51.490Z,10.15
2023-03-13T07:18:17.996Z,10.19
2023-03-13T07:20:44.532Z,10.23
2023-03-13T07:23:11.051Z,10.27
2023-03-13T07:25:37.443Z,10.30
2023-03-13T07:28:03.953Z,10.42
2023-03-13T07:30:30.681Z,10.50
2023-03-13T07:32:58.636Z,10.47
2023-03-13T07:35:25.094Z,10.48
2023-03-13T07:37:52.181Z,10.52
2023-03-13T07:40:18.646Z,10.48
2023-03-13T07:42:45.138Z,10.55
2023-03-13T07:45:12.073Z,10.59
2023-03-13T07:47:38.558Z,10.61
2023-03-13T07:50:05.622Z,10.64
2023-03-13T07:52:32.536Z,10.70
2023-03-13T07:54:59.430Z,10.60
2023-03-13T07:57:25.890Z,10.69
2023-03-13T07:59:52.270Z,10.74
2023-03-13T08:02:18.857Z,10.70
2023-03-13T08:04:45.357Z,10.69
2023-03-13T08:07:12.222Z,10.78
2023-03-13T08:09:38.814Z,10.75
2023-03-13T08:12:06.381Z,10.80
2023-03-13T08:14:32.835Z,10.85
2023-03-13T08:16:59.517Z,10.86
2023-03-13T08:19:26.119Z,10.84
2023-03-13T08:21:52.578Z,10.87
2023-03-13T08:24:19.341Z,10.97
2023-03-13T08:26:45.752Z,11.05
2023-03-13T08:29:14.816Z,11.05
2023-03-13T08:31:49.044Z,11.07
2023-03-13T08:34:17.699Z,11.12
2023-03-13T08:36:44.952Z,11.20
2023-03-13T08:39:16.387Z,11.25
2023-03-13T08:41:43.300Z,11.36
2023-03-13T08:44:15.244Z,11.33
2023-03-13T08:46:43.835Z,11.37
2023-03-13T08:49:12.135Z,11.41
2023-03-13T08:51:39.474Z,11.37
2023-03-13T08:54:06.600Z,11.40
2023-03-13T08:56:34.905Z,11.35
2023-03-13T08:59:04.662Z,11.35
2023-03-13T09:01:33.460Z,11.40
2023-03-13T09:04:03.966Z,11.53
2023-03-13T09:06:32.604Z,11.60
2023-03-13T09:08:59.386Z,11.65
2023-03-13T09:11:26.494Z,11.71
2023-03-13T09:13:55.181Z,11.65
2023-03-13T09:16:29.822Z,11.71
2023-03-13T09:18:57.365Z,11.79
2023-03-13T09:21:34.989Z,11.81
2023-03-13T09:24:02.604Z,11.79
2023-03-13T09:26:29.722Z,11.75
2023-03-13T09:28:56.669Z,11.81
2023-03-13T09:31:24.586Z,11.81
2023-03-13T09:33:51.656Z,11.84
2023-03-13T09:36:22.427Z,11.83
2023-03-13T09:38:54.421Z,11.80
2023-03-13T09:41:42.060Z,11.76
2023-03-13T09:44:22.344Z,11.73
2023-03-13T09:47:00.941Z,11.77
2023-03-13T09:49:42.005Z,11.79
2023-03-13T09:52:26.221Z,11.76
2023-03-13T09:55:20.948Z,11.92
2023-03-13T09:57:54.243Z,11.94
2023-03-13T10:00:25.812Z,11.98
2023-03-13T10:03:12.983Z,12.02
2023-03-13T10:05:49.258Z,12.01
2023-03-13T10:08:22.956Z,12.01
2023-03-13T10:11:00.947Z,12.00
2023-03-13T10:13:44.929Z,12.07
2023-03-13T10:16:19.385Z,11.99
2023-03-13T10:18:55.357Z,12.01
2023-03-13T10:21:24.744Z,12.12
2023-03-13T10:24:25.308Z,12.18
2023-03-13T10:26:51.771Z,12.30
2023-03-13T10:29:23.669Z,12.31
2023-03-13T10:32:12.721Z,12.44
2023-03-13T10:35:00.557Z,12.63
2023-03-13T10:37:30.306Z,12.77
2023-03-13T10:40:15.266Z,13.08
2023-03-13T10:42:45.866Z,13.31
2023-03-13T10:45:18.532Z,13.31
2023-03-13T10:47:45.147Z,13.37
2023-03-13T10:50:20.628Z,13.70
2023-03-13T10:52:48.688Z,13.79
2023-03-13T10:55:20.365Z,13.82
2023-03-13T10:58:02.675Z,13.71
2023-03-13T11:00:35.514Z,13.68
2023-03-13T11:03:06.869Z,13.75
2023-03-13T11:05:37.960Z,13.85
2023-03-13T11:08:16.295Z,13.92
2023-03-13T11:10:53.257Z,13.95
2023-03-13T11:13:38.109Z,13.95
2023-03-13T11:16:23.471Z,13.99
2023-03-13T11:19:07.936Z,14.08
2023-03-13T11:21:44.422Z,14.22
2023-03-13T11:24:24.817Z,14.40
2023-03-13T11:27:07.915Z,14.55
2023-03-13T11:29:57.043Z,14.54
2023-03-13T11:32:31.713Z,14.49
2023-03-13T11:35:07.838Z,14.56
2023-03-13T11:37:38.988Z,14.70
2023-03-13T11:40:31.817Z,14.85
2023-03-13T11:43:35.359Z,14.95
2023-03-13T11:46:29.585Z,15.08
2023-03-13T11:49:20.828Z,15.20
2023-03-13T11:52:12.690Z,15.16
2023-03-13T11:54:58.660Z,14.99
2023-03-13T11:57:30.987Z,15.04
2023-03-13T12:00:06.546Z,14.98
2023-03-13T12:02:48.312Z,15.12
2023-03-13T12:05:18.466Z,15.23
2023-03-13T12:08:09.849Z,15.37
2023-03-13T12:10:58.542Z,15.24
2023-03-13T12:14:01.008Z,15.19
2023-03-13T12:16:47.365Z,15.13
2023-03-13T12:19:21.930Z,15.13
2023-03-13T12:21:54.669Z,15.03
2023-03-13T12:24:32.716Z,15.09
2023-03-13T12:27:05.663Z,15.27
2023-03-13T12:29:53.379Z,15.40
2023-03-13T12:32:29.615Z,15.27
2023-03-13T12:35:18.293Z,15.27
2023-03-13T12:37:50.646Z,15.17
2023-03-13T12:40:22.893Z,15.23
2023-03-13T12:43:05.233Z,15.44
2023-03-13T12:45:33.740Z,15.65
2023-03-13T12:48:23.351Z,15.75
2023-03-13T12:51:28.548Z,15.82
2023-03-13T12:54:04.015Z,15.73
2023-03-13T12:56:40.554Z,15.85
2023-03-13T12:59:19.289Z,15.88
2023-03-13T13:01:50.969Z,15.85
2023-03-13T13:04:24.734Z,15.80
2023-03-13T13:07:06.258Z,15.68
2023-03-13T13:09:39.227Z,15.68
2023-03-13T13:12:14.492Z,15.69
2023-03-13T13:14:50.102Z,15.65
2023-03-13T13:17:42.173Z,15.74
2023-03-13T13:20:30.523Z,15.66
2023-03-13T13:22:57.743Z,15.66
2023-03-13T13:25:24.112Z,15.70
2023-03-13T13:27:50.741Z,15.76
2023-03-13T13:30:17.106Z,15.68
2023-03-13T13:32:49.174Z,15.65
2023-03-13T13:35:20.110Z,15.57
2023-03-13T13:37:49.428Z,15.72
2023-03-13T13:40:16.205Z,15.93
2023-03-13T13:43:05.582Z,16.14
2023-03-13T13:45:39.128Z,16.09
2023-03-13T13:48:27.805Z,16.20
2023-03-13T13:51:14.100Z,16.38
2023-03-13T13:53:50.771Z,16.31
2023-03-13T13:56:32.337Z,16.23
2023-03-13T13:59:20.943Z,16.13
2023-03-13T14:01:49.857Z,16.32
2023-03-13T14:04:24.859Z,16.55
2023-03-13T14:06:52.794Z,16.69
2023-03-13T14:09:40.768Z,16.68
2023-03-13T14:12:38.232Z,16.51
2023-03-13T14:15:19.098Z,16.59
2023-03-13T14:17:54.707Z,16.86
2023-03-13T14:20:27.264Z,16.87
2023-03-13T14:22:56.135Z,16.73
2023-03-13T14:25:24.608Z,16.71
2023-03-13T14:27:52.316Z,16.78
2023-03-13T14:30:20.716Z,16.84
2023-03-13T14:32:48.016Z,16.71
2023-03-13T14:35:19.488Z,16.77
2023-03-13T14:37:48.157Z,16.74
2023-03-13T14:40:27.641Z,16.85
2023-03-13T14:42:57.366Z,16.82
2023-03-13T14:45:33.087Z,16.83
2023-03-13T14:48:03.496Z,16.87
2023-03-13T14:50:30.030Z,16.87
2023-03-13T14:53:05.251Z,16.75
2023-03-13T14:55:35.468Z,16.70
2023-03-13T14:58:05.520Z,16.52
2023-03-13T15:00:41.276Z,16.34
2023-03-13T15:03:16.899Z,16.19
2023-03-13T15:05:45.357Z,16.14
2023-03-13T15:08:24.607Z,16.13
2023-03-13T15:10:51.226Z,16.21
2023-03-13T15:13:43.938Z,16.15
2023-03-13T15:16:21.752Z,16.10
2023-03-13T15:18:51.028Z,16.03
2023-03-13T15:21:22.145Z,16.01
2023-03-13T15:24:10.073Z,15.96
2023-03-13T15:26:36.545Z,16.01
2023-03-13T15:29:03.030Z,15.85
2023-03-13T15:31:30.010Z,15.84
2023-03-13T15:33:59.645Z,15.82
2023-03-13T15:36:28.130Z,15.98
2023-03-13T15:38:54.962Z,16.06
2023-03-13T15:41:22.317Z,16.02
2023-03-13T15:43:56.917Z,15.98
2023-03-13T15:46:25.318Z,15.80
2023-03-13T15:48:52.194Z,15.84
2023-03-13T15:51:18.839Z,15.83
2023-03-13T15:53:46.110Z,15.65
2023-03-13T15:56:18.102Z,15.63
2023-03-13T15:58:45.822Z,15.58
2023-03-13T16:01:13.893Z,15.42
2023-03-13T16:03:41.261Z,15.42
2023-03-13T16:06:17.392Z,15.37
2023-03-13T16:08:45.021Z,15.31
2023-03-13T16:11:16.727Z,15.27
2023-03-13T16:13:43.363Z,15.26
2023-03-13T16:16:19.410Z,15.22
2023-03-13T16:18:47.034Z,15.10
2023-03-13T16:21:19.582Z,15.08
2023-03-13T16:23:46.089Z,15.03
2023-03-13T16:26:16.222Z,15.06
2023-03-13T16:28:42.772Z,15.02
2023-03-13T16:31:17.064Z,15.12
2023-03-13T16:33:43.773Z,15.06
2023-03-13T16:36:15.326Z,15.01
2023-03-13T16:38:41.969Z,15.03
2023-03-13T16:41:10.833Z,14.99
2023-03-13T16:43:37.364Z,14.95
2023-03-13T16:46:06.456Z,15.06
2023-03-13T16:48:33.086Z,15.01
2023-03-13T16:50:59.810Z,14.90
2023-03-13T16:53:26.337Z,14.96
2023-03-13T16:55:54.917Z,14.76
2023-03-13T16:58:21.445Z,14.91
2023-03-13T17:01:02.747Z,14.82
2023-03-13T17:03:31.491Z,14.75
2023-03-13T17:05:57.945Z,14.70
2023-03-13T17:08:24.354Z,14.70
2023-03-13T17:10:50.824Z,14.75
2023-03-13T17:13:20.085Z,14.68
2023-03-13T17:15:46.511Z,14.64
2023-03-13T17:18:12.932Z,14.65
2023-03-13T17:20:39.601Z,14.46
2023-03-13T17:23:05.996Z,14.38
2023-03-13T17:25:33.156Z,14.42
2023-03-13T17:27:59.828Z,14.25
2023-03-13T17:30:30.288Z,14.08
2023-03-13T17:32:59.260Z,14.01
2023-03-13T17:35:25.754Z,14.09
2023-03-13T17:37:52.349Z,14.07
2023-03-13T17:40:28.135Z,14.01
2023-03-13T17:42:56.125Z,13.84
2023-03-13T17:45:22.565Z,13.89
2023-03-13T17:47:51.728Z,13.78
2023-03-13T17:50:26.379Z,13.84
2023-03-13T17:52:53.553Z,13.86
2023-03-13T17:55:20.060Z,13.84
2023-03-13T17:57:48.271Z,13.75
2023-03-13T18:00:24.797Z,13.73
2023-03-13T18:02:51.399Z,13.61
2023-03-13T18:05:18.451Z,13.63
2023-03-13T18:07:45.165Z,13.60
2023-03-13T18:10:26.473Z,13.65
2023-03-13T18:12:53.274Z,13.52
2023-03-13T18:15:21.299Z,13.59
2023-03-13T18:17:48.465Z,13.50
2023-03-13T18:20:21.261Z,13.55
2023-03-13T18:22:47.919Z,13.45
2023-03-13T18:25:14.541Z,13.42
2023-03-13T18:27:41.401Z,13.34
2023-03-13T18:30:17.317Z,13.34
2023-03-13T18:32:43.885Z,13.27
2023-03-13T18:35:12.199Z,13.22
2023-03-13T18:37:41.898Z,13.24
2023-03-13T18:40:17.382Z,13.14
2023-03-13T18:42:43.934Z,13.04
2023-03-13T18:45:15.349Z,13.08
2023-03-13T18:47:41.897Z,13.11
2023-03-13T18:50:18.708Z,13.09
2023-03-13T18:52:45.159Z,12.82
2023-03-13T18:55:11.527Z,12.72
2023-03-13T18:57:38.016Z,12.74
2023-03-13T19:00:24.438Z,12.78
2023-03-13T19:02:51.173Z,12.73
2023-03-13T19:05:18.639Z,12.74
2023-03-13T19:07:45.528Z,12.57
2023-03-13T19:10:24.673Z,12.52
2023-03-13T19:12:52.291Z,12.46
2023-03-13T19:15:19.306Z,12.36
2023-03-13T19:17:45.791Z,12.29
2023-03-13T19:20:18.111Z,12.32
2023-03-13T19:22:44.628Z,12.39
2023-03-13T19:25:12.370Z,12.35
2023-03-13T19:27:40.675Z,12.30
2023-03-13T19:30:18.173Z,12.16
2023-03-13T19:32:45.067Z,12.05
2023-03-13T19:35:12.654Z,12.03
2023-03-13T19:37:40.342Z,12.01
2023-03-13T19:40:15.895Z,11.97
2023-03-13T19:42:42.367Z,12.02
2023-03-13T19:45:12.168Z,12.04
2023-03-13T19:47:39.348Z,12.15
2023-03-13T19:50:06.601Z,12.02
2023-03-13T19:52:33.109Z,12.17
2023-03-13T19:55:05.115Z,12.32
2023-03-13T19:57:32.383Z,12.31
2023-03-13T19:59:58.961Z,12.35
2023-03-13T20:02:26.655Z,12.16
2023-03-13T20:04:53.077Z,12.17
2023-03-13T20:07:19.507Z,11.99
2023-03-13T20:09:45.943Z,12.01
2023-03-13T20:12:12.402Z,11.94
2023-03-13T20:14:38.923Z,12.07
2023-03-13T20:17:05.612Z,11.97
2023-03-13T20:19:32.337Z,11.96
2023-03-13T20:22:05.092Z,11.94
2023-03-13T20:24:33.515Z,11.92
2023-03-13T20:27:00.677Z,11.93
2023-03-13T20:29:28.140Z,12.03
2023-03-13T20:31:55.842Z,11.98
2023-03-13T20:34:22.352Z,11.92
2023-03-13T20:36:48.866Z,12.01
2023-03-13T20:39:15.283Z,12.02
2023-03-13T20:41:41.705Z,11.80
2023-03-13T20:44:08.108Z,11.64
2023-03-13T20:46:35.139Z,11.60
2023-03-13T20:49:01.966Z,11.60
2023-03-13T20:51:29.000Z,11.61
2023-03-13T20:53:55.587Z,11.70
2023-03-13T20:56:22.253Z,11.49
2023-03-13T20:58:48.722Z,11.35
2023-03-13T21:01:17.639Z,11.24
2023-03-13T21:03:44.850Z,11.29
2023-03-13T21:06:13.944Z,11.27
2023-03-13T21:08:41.081Z,11.14
2023-03-13T21:11:15.991Z,11.19
2023-03-13T21:13:42.539Z,11.09
2023-03-13T21:16:09.890Z,11.08
2023-03-13T21:18:36.785Z,11.00
2023-03-13T21:21:12.271Z,10.95
2023-03-13T21:23:38.807Z,10.87
2023-03-13T21:26:05.627Z,11.05
2023-03-13T21:28:32.688Z,11.09
2023-03-13T21:30:59.415Z,10.89
2023-03-13T21:33:25.944Z,10.89
2023-03-13T21:35:52.445Z,10.86
2023-03-13T21:38:18.948Z,10.96
2023-03-13T21:40:45.372Z,10.92
2023-03-13T21:43:11.794Z,10.93
2023-03-13T21:45:38.228Z,10.95
2023-03-13T21:48:04.659Z,10.94
2023-03-13T21:50:32.599Z,10.86
2023-03-13T21:52:59.221Z,10.75
2023-03-13T21:55:25.665Z,10.75
2023-03-13T21:57:52.108Z,10.78
2023-03-13T22:00:18.790Z,10.84
2023-03-13T22:02:45.282Z,10.93
2023-03-13T22:05:11.836Z,10.85
2023-03-13T22:07:38.265Z,10.91
2023-03-13T22:10:05.228Z,10.77
2023-03-13T22:12:31.763Z,10.73
2023-03-13T22:14:58.186Z,10.64
2023-03-13T22:17:24.591Z,10.74
2023-03-13T22:19:51.105Z,10.67
2023-03-13T22:22:19.752Z,10.62
2023-03-13T22:24:46.393Z,10.52
2023-03-13T22:27:12.938Z,10.43
2023-03-13T22:29:39.480Z,10.46
2023-03-13T22:32:05.944Z,10.46
2023-03-13T22:34:32.994Z,10.47
2023-03-13T22:36:59.625Z,10.53
2023-03-13T22:39:26.101Z,10.53
2023-03-13T22:41:52.497Z,10.59
2023-03-13T22:44:18.973Z,10.57
2023-03-13T22:46:45.558Z,10.38
2023-03-13T22:49:11.980Z,10.45
2023-03-13T22:51:38.440Z,10.44
2023-03-13T22:54:04.921Z,10.46
2023-03-13T22:56:31.583Z,10.38
2023-03-13T22:58:58.086Z,10.49
2023-03-13T23:01:24.583Z,10.53
2023-03-13T23:03:51.358Z,10.48
2023-03-13T23:06:21.076Z,10.41
2023-03-13T23:08:47.604Z,10.49
2023-03-13T23:11:14.974Z,10.47
2023-03-13T23:13:41.451Z,10.64
2023-03-13T23:16:10.123Z,10.50
2023-03-13T23:18:38.377Z,10.54
2023-03-13T23:21:07.586Z,10.53
2023-03-13T23:23:34.679Z,10.60
2023-03-13T23:26:03.104Z,10.47
2023-03-13T23:28:29.612Z,10.54
2023-03-13T23:30:56.058Z,10.48
2023-03-13T23:33:22.777Z,10.54
2023-03-13T23:35:49.239Z,10.57
2023-03-13T23:38:18.331Z,10.72
2023-03-13T23:40:44.822Z,10.74
2023-03-13T23:43:11.500Z,10.78
2023-03-13T23:45:38.491Z,10.73
2023-03-13T23:48:05.586Z,10.70
2023-03-13T23:50:32.129Z,10.83
2023-03-13T23:52:58.552Z,10.80
2023-03-13T23:55:24.978Z,10.77
2023-03-13T23:57:51.358Z,10.67
